This is the latest recevied weather packets stored in our database for station/object N4BBA. If no packets are shown the sender has not sent any weather packets the latest 10 day(s).
| Time | Temp. | Humidity | Pressure | Rain* | Wind** | Luminosity | Snow |
|---|---|---|---|---|---|---|---|
| 1777746472 | 11.67° C | 96% | 1011.3 hPa | 1.27 mm | - | 225 W/m² | - |
| 1777746167 | 11.67° C | 96% | 1011.7 hPa | 1.78 mm | - | 167 W/m² | - |
| 1777745864 | 11.67° C | 96% | 1012 hPa | 1.78 mm | - | 132 W/m² | - |
| 1777745563 | 12.22° C | 96% | 1012.1 hPa | 0 mm | - | 134 W/m² | - |
| 1777745260 | 12.22° C | 96% | 1012 hPa | 1.27 mm | - | 192 W/m² | - |
| 1777744958 | 12.22° C | 96% | 1011.8 hPa | 1.27 mm | - | 244 W/m² | - |
| 1777744657 | 11.67° C | 96% | 1011.8 hPa | 1.78 mm | - | 239 W/m² | - |
| 1777744352 | 11.67° C | 96% | 1011.9 hPa | 1.78 mm | - | 175 W/m² | - |
| 1777744050 | 11.67° C | 96% | 1011.8 hPa | 0 mm | - | 205 W/m² | - |
| 1777743747 | 11.67° C | 96% | 1012 hPa | 1.27 mm | - | 187 W/m² | - |
| 1777743444 | 11.11° C | 96% | 1012 hPa | 1.27 mm | - | 186 W/m² | - |
| 1777743141 | 11.67° C | 96% | 1012.3 hPa | 0 mm | - | 142 W/m² | - |
| 1777742839 | 11.67° C | 96% | 1012.2 hPa | 1.78 mm | - | 189 W/m² | - |
| 1777742535 | 12.22° C | 96% | 1011.8 hPa | 0 mm | - | 270 W/m² | - |
| 1777742231 | 11.67° C | 97% | 1012.1 hPa | 1.27 mm | - | 209 W/m² | - |
| 1777741928 | 11.67° C | 97% | 1012.2 hPa | 1.27 mm | - | 186 W/m² | - |
| 1777741625 | 11.67° C | 97% | 1012 hPa | 1.78 mm | - | 234 W/m² | - |
| 1777741322 | 11.67° C | 97% | 1011.9 hPa | 1.78 mm | - | 277 W/m² | - |
| 1777741017 | 11.67° C | 97% | 1011.8 hPa | 1.78 mm | - | 327 W/m² | - |
| 1777740715 | 11.67° C | 97% | 1012.2 hPa | 1.78 mm | - | 335 W/m² | - |
| 1777740411 | 11.67° C | 97% | 1012.1 hPa | 0 mm | - | 291 W/m² | - |
| 1777740109 | 11.67° C | 97% | 1012.3 hPa | 1.27 mm | - | 200 W/m² | - |
| 1777739804 | 11.67° C | 97% | 1012.5 hPa | 1.27 mm | - | 241 W/m² | - |
| 1777739501 | 11.67° C | 97% | 1012.8 hPa | 1.78 mm | - | 242 W/m² | - |
| 1777739198 | 11.11° C | 97% | 1012.9 hPa | 1.78 mm | - | 184 W/m² | - |
* Rain latest hour (hover to see other rain measurements)
** Current wind speed in m/s (hover to see current wind gust speed)